Time;durP1;ratioP1;P1;durP2;ratioP2;P2;SDS_P1;SDS_P2;PMS_P1;PMS_P2;Temp;Humidity;BMP_temperature;BMP_pressure;BME280_temperature;BME280_humidity;BME280_pressure;Samples;Min_cycle;Max_cycle;Signal;HPM_P1;HPM_P2
2022/07/05 00:00:33;;;;;;;;;;;19.20;99.90;;;;;;4943766;29;19922;-73
2022/07/05 00:02:59;;;;;;;;;;;19.20;99.90;;;;;;4948614;28;19927;-72
2022/07/05 00:05:26;;;;;;;;;;;19.20;99.90;;;;;;4939403;28;19949;-73
2022/07/05 00:07:58;;;;;;;;;;;19.10;99.90;;;;;;4936056;29;19968;-72
2022/07/05 00:10:30;;;;;;;;;;;19.10;99.90;;;;;;4927602;29;20483;-73
2022/07/05 00:13:02;;;;;;;;;;;19.20;99.90;;;;;;4952394;29;19929;-72
2022/07/05 00:15:34;;;;;;;;;;;19.20;99.90;;;;;;4939068;28;19929;-72
2022/07/05 00:18:06;;;;;;;;;;;19.20;99.90;;;;;;4924205;29;19929;-73
2022/07/05 00:20:37;;;;;;;;;;;19.20;99.90;;;;;;4956679;28;19926;-72
2022/07/05 00:23:09;;;;;;;;;;;19.10;99.90;;;;;;4967125;28;20303;-73
2022/07/05 00:25:41;;;;;;;;;;;19.00;99.90;;;;;;4938816;28;19945;-72
2022/07/05 00:28:14;;;;;;;;;;;18.90;99.90;;;;;;4960886;28;20279;-72
2022/07/05 00:30:42;;;;;;;;;;;19.00;99.90;;;;;;4941038;29;19923;-72
2022/07/05 00:33:13;;;;;;;;;;;18.90;99.90;;;;;;4947368;28;19928;-72
2022/07/05 00:35:40;;;;;;;;;;;18.90;99.90;;;;;;4934605;29;19922;-71
2022/07/05 00:38:12;;;;;;;;;;;18.90;99.90;;;;;;4941122;29;19929;-72
2022/07/05 00:40:44;;;;;;;;;;;18.90;99.90;;;;;;4928821;29;19962;-72
2022/07/05 00:43:15;;;;;;;;;;;18.80;99.90;;;;;;4938559;29;19929;-73
2022/07/05 00:45:42;;;;;;;;;;;18.80;99.90;;;;;;4929549;28;19927;-72
2022/07/05 00:48:14;;;;;;;;;;;18.70;99.90;;;;;;4938888;29;19923;-72
2022/07/05 00:50:41;;;;;;;;;;;18.70;99.90;;;;;;4939450;29;19929;-73
2022/07/05 00:53:08;;;;;;;;;;;18.70;99.90;;;;;;4918876;29;19927;-72
2022/07/05 00:55:40;;;;;;;;;;;18.70;99.90;;;;;;4933314;28;19927;-72
2022/07/05 00:58:06;;;;;;;;;;;18.70;99.90;;;;;;4944474;29;19923;-72
2022/07/05 01:00:38;;;;;;;;;;;18.70;99.90;;;;;;4920878;29;19927;-73
2022/07/05 01:03:10;;;;;;;;;;;18.70;99.90;;;;;;4941761;29;19929;-73
2022/07/05 01:05:42;;;;;;;;;;;18.70;99.90;;;;;;4935466;28;19978;-73
2022/07/05 01:08:14;;;;;;;;;;;18.70;99.90;;;;;;4938718;29;19922;-72
2022/07/05 01:10:46;;;;;;;;;;;18.70;99.90;;;;;;4938938;29;19962;-72
2022/07/05 01:13:18;;;;;;;;;;;18.80;99.90;;;;;;4953026;28;19966;-72
2022/07/05 01:15:49;;;;;;;;;;;18.80;99.90;;;;;;4939229;28;19926;-72
2022/07/05 01:18:21;;;;;;;;;;;18.80;99.90;;;;;;4962911;28;20282;-72
2022/07/05 01:20:49;;;;;;;;;;;18.80;99.90;;;;;;4934584;29;20277;-73
2022/07/05 01:23:21;;;;;;;;;;;18.80;99.90;;;;;;4942794;28;19922;-72
2022/07/05 01:25:54;;;;;;;;;;;18.80;99.90;;;;;;4932430;28;19923;-73
2022/07/05 01:28:25;;;;;;;;;;;18.80;99.90;;;;;;4939289;29;19923;-72
2022/07/05 01:30:52;;;;;;;;;;;18.80;99.90;;;;;;4946097;28;20290;-72
2022/07/05 01:33:30;;;;;;;;;;;18.80;99.90;;;;;;4929258;29;19927;-72
2022/07/05 01:36:02;;;;;;;;;;;18.80;99.90;;;;;;4937412;28;19923;-73
2022/07/05 01:38:34;;;;;;;;;;;18.80;99.90;;;;;;4936960;28;19961;-73
2022/07/05 01:41:05;;;;;;;;;;;18.80;99.90;;;;;;4938718;29;19932;-72
2022/07/05 01:43:37;;;;;;;;;;;18.70;99.90;;;;;;4936408;28;19923;-73
2022/07/05 01:46:10;;;;;;;;;;;18.70;99.90;;;;;;4925037;29;20393;-73
2022/07/05 01:48:42;;;;;;;;;;;18.60;99.90;;;;;;4935529;29;19929;-73
2022/07/05 01:51:18;;;;;;;;;;;18.60;99.90;;;;;;4945815;29;19929;-72
2022/07/05 01:53:51;;;;;;;;;;;18.60;99.90;;;;;;4947779;28;19994;-73
2022/07/05 01:56:23;;;;;;;;;;;18.60;99.90;;;;;;4924278;29;19923;-72
2022/07/05 01:58:55;;;;;;;;;;;18.60;99.90;;;;;;4934655;29;19929;-73
2022/07/05 02:01:37;;;;;;;;;;;18.60;99.90;;;;;;4961223;28;19926;-73
2022/07/05 02:04:10;;;;;;;;;;;18.60;99.90;;;;;;4939424;29;19928;-72
2022/07/05 02:06:37;;;;;;;;;;;18.50;99.90;;;;;;4924661;29;19930;-72
2022/07/05 02:09:09;;;;;;;;;;;18.50;99.90;;;;;;4946134;29;19974;-73
2022/07/05 02:11:41;;;;;;;;;;;18.50;99.90;;;;;;4929251;29;19926;-72
2022/07/05 02:14:13;;;;;;;;;;;18.60;99.90;;;;;;4953211;28;19929;-73
2022/07/05 02:16:45;;;;;;;;;;;18.50;99.90;;;;;;4924045;29;19926;-73
2022/07/05 02:19:17;;;;;;;;;;;18.50;99.90;;;;;;4950747;28;19970;-73
2022/07/05 02:21:50;;;;;;;;;;;18.50;99.90;;;;;;4948927;28;19923;-72
2022/07/05 02:24:22;;;;;;;;;;;18.40;99.90;;;;;;4917023;29;19927;-72
2022/07/05 02:27:06;;;;;;;;;;;18.40;99.90;;;;;;4919409;29;19930;-72
2022/07/05 02:29:38;;;;;;;;;;;18.40;99.90;;;;;;4942794;28;19930;-73
2022/07/05 02:32:11;;;;;;;;;;;18.40;99.90;;;;;;4951908;28;19958;-73
2022/07/05 02:34:43;;;;;;;;;;;18.40;99.90;;;;;;4938557;29;20014;-73
2022/07/05 02:37:11;;;;;;;;;;;18.40;99.90;;;;;;4924267;29;20335;-73
2022/07/05 02:39:43;;;;;;;;;;;18.30;99.90;;;;;;4946893;29;19922;-72
2022/07/05 02:42:16;;;;;;;;;;;18.20;99.90;;;;;;4951841;28;20013;-72
2022/07/05 02:44:47;;;;;;;;;;;18.10;99.90;;;;;;4947484;28;19923;-72
2022/07/05 02:47:21;;;;;;;;;;;17.90;99.90;;;;;;4943776;28;20380;-72
2022/07/05 02:49:53;;;;;;;;;;;17.90;99.90;;;;;;4945986;29;20025;-72
2022/07/05 02:52:25;;;;;;;;;;;17.90;99.90;;;;;;4936350;29;19927;-72
2022/07/05 02:54:57;;;;;;;;;;;17.90;99.90;;;;;;4923092;29;19969;-72
2022/07/05 02:57:28;;;;;;;;;;;18.00;99.90;;;;;;4946530;28;19934;-72
2022/07/05 03:00:04;;;;;;;;;;;17.90;99.90;;;;;;4956060;28;19929;-72
2022/07/05 03:02:40;;;;;;;;;;;17.90;99.90;;;;;;4940188;28;19927;-72
2022/07/05 03:05:11;;;;;;;;;;;17.80;99.90;;;;;;4937997;28;19930;-72
2022/07/05 03:07:52;;;;;;;;;;;17.90;99.90;;;;;;4941408;28;20269;-72
2022/07/05 03:10:26;;;;;;;;;;;17.90;99.90;;;;;;4953495;28;20842;-72
2022/07/05 03:12:59;;;;;;;;;;;17.90;99.90;;;;;;4941731;29;20376;-72
2022/07/05 03:15:31;;;;;;;;;;;17.90;99.90;;;;;;4926458;28;19970;-72
2022/07/05 03:18:03;;;;;;;;;;;17.80;99.90;;;;;;4932333;29;19926;-72
2022/07/05 03:20:31;;;;;;;;;;;17.80;99.90;;;;;;4941340;28;20302;-72
2022/07/05 03:23:03;;;;;;;;;;;17.70;99.90;;;;;;4925298;29;19922;-72
2022/07/05 03:25:38;;;;;;;;;;;17.70;99.90;;;;;;4944500;29;20017;-72
2022/07/05 03:28:11;;;;;;;;;;;17.70;99.90;;;;;;4946776;28;19965;-72
2022/07/05 03:30:45;;;;;;;;;;;17.70;99.90;;;;;;4926440;29;19929;-72
2022/07/05 03:33:17;;;;;;;;;;;17.70;99.90;;;;;;4939593;29;20271;-72
2022/07/05 03:35:48;;;;;;;;;;;17.60;99.90;;;;;;4938532;28;21302;-72
2022/07/05 03:38:20;;;;;;;;;;;17.50;99.90;;;;;;4939450;29;19966;-72
2022/07/05 03:40:52;;;;;;;;;;;17.50;99.90;;;;;;4929106;29;19969;-72
2022/07/05 03:43:26;;;;;;;;;;;17.50;99.90;;;;;;4916387;29;20013;-72
2022/07/05 03:45:57;;;;;;;;;;;17.40;99.90;;;;;;4920811;29;19923;-72
2022/07/05 03:48:31;;;;;;;;;;;17.40;99.90;;;;;;4938868;28;20324;-72
2022/07/05 03:51:03;;;;;;;;;;;17.50;99.90;;;;;;4954814;28;19954;-72
2022/07/05 03:53:35;;;;;;;;;;;17.50;99.90;;;;;;4950695;28;19922;-72
2022/07/05 03:56:03;;;;;;;;;;;17.50;99.90;;;;;;4926265;29;20059;-72
2022/07/05 03:58:30;;;;;;;;;;;17.40;99.90;;;;;;4946743;28;19926;-72
2022/07/05 04:01:02;;;;;;;;;;;17.40;99.90;;;;;;4928330;29;19930;-72
2022/07/05 04:03:34;;;;;;;;;;;17.30;99.90;;;;;;4929928;29;19929;-72
2022/07/05 04:06:01;;;;;;;;;;;17.40;99.90;;;;;;4933252;29;19923;-72
2022/07/05 04:08:32;;;;;;;;;;;17.40;99.90;;;;;;4934495;29;19981;-72
2022/07/05 04:11:05;;;;;;;;;;;17.40;99.90;;;;;;4944389;29;19926;-72
2022/07/05 04:13:40;;;;;;;;;;;17.50;99.90;;;;;;4945004;28;20005;-72
2022/07/05 04:16:12;;;;;;;;;;;17.60;99.90;;;;;;4931799;28;19927;-71
2022/07/05 04:18:43;;;;;;;;;;;17.60;99.90;;;;;;4946799;28;19927;-72
2022/07/05 04:21:15;;;;;;;;;;;17.50;99.90;;;;;;4960741;28;19933;-73
2022/07/05 04:23:48;;;;;;;;;;;17.50;99.90;;;;;;4945309;29;19941;-72
2022/07/05 04:26:20;;;;;;;;;;;17.60;99.90;;;;;;4933598;28;19926;-72
2022/07/05 04:28:51;;;;;;;;;;;17.60;99.90;;;;;;4946846;28;19930;-72
2022/07/05 04:31:28;;;;;;;;;;;17.70;99.90;;;;;;4944843;28;19933;-72
2022/07/05 04:33:55;;;;;;;;;;;17.70;99.90;;;;;;4948121;28;20352;-72
2022/07/05 04:36:31;;;;;;;;;;;17.80;99.90;;;;;;4930363;29;19929;-72
2022/07/05 04:39:03;;;;;;;;;;;17.90;99.90;;;;;;4920863;29;19927;-73
2022/07/05 04:41:39;;;;;;;;;;;17.90;99.90;;;;;;4946788;28;19926;-72
2022/07/05 04:44:07;;;;;;;;;;;17.90;99.90;;;;;;4942598;28;19923;-71
2022/07/05 04:46:40;;;;;;;;;;;17.90;99.90;;;;;;4939477;28;20359;-73
2022/07/05 04:49:12;;;;;;;;;;;18.00;99.90;;;;;;4932177;29;19958;-72
2022/07/05 04:51:38;;;;;;;;;;;18.00;99.90;;;;;;4937942;28;19985;-72
2022/07/05 04:54:05;;;;;;;;;;;18.00;99.90;;;;;;4934228;29;19933;-72
2022/07/05 04:56:32;;;;;;;;;;;18.00;99.90;;;;;;4929119;28;20356;-72
2022/07/05 04:59:03;;;;;;;;;;;18.00;99.90;;;;;;4935683;29;19922;-73
2022/07/05 05:01:30;;;;;;;;;;;18.10;99.90;;;;;;4927701;29;19954;-72
2022/07/05 05:04:02;;;;;;;;;;;18.10;99.90;;;;;;4926949;29;19957;-72
2022/07/05 05:06:33;;;;;;;;;;;18.10;99.90;;;;;;4927425;28;19931;-72
2022/07/05 05:09:05;;;;;;;;;;;18.10;99.90;;;;;;4929218;29;20017;-72
2022/07/05 05:11:36;;;;;;;;;;;18.10;99.90;;;;;;4929459;29;20025;-72
2022/07/05 05:14:08;;;;;;;;;;;18.10;99.90;;;;;;4930959;29;19942;-72
2022/07/05 05:16:40;;;;;;;;;;;18.10;99.90;;;;;;4930924;29;19930;-72
2022/07/05 05:19:06;;;;;;;;;;;18.10;99.90;;;;;;4919571;29;19973;-73
2022/07/05 05:21:38;;;;;;;;;;;18.10;99.90;;;;;;4943033;29;19922;-72
2022/07/05 05:24:10;;;;;;;;;;;18.10;99.90;;;;;;4934508;29;19933;-72
2022/07/05 05:26:42;;;;;;;;;;;18.20;99.90;;;;;;4942915;29;19953;-72
2022/07/05 05:29:08;;;;;;;;;;;18.20;99.90;;;;;;4932422;29;19922;-73
2022/07/05 05:31:35;;;;;;;;;;;18.20;99.90;;;;;;4939958;29;20372;-72
2022/07/05 05:34:07;;;;;;;;;;;18.20;99.90;;;;;;4942249;29;19955;-73
2022/07/05 05:36:38;;;;;;;;;;;18.20;99.90;;;;;;4938713;28;19926;-72
2022/07/05 05:39:05;;;;;;;;;;;18.20;99.90;;;;;;4956022;28;19934;-72
2022/07/05 05:41:36;;;;;;;;;;;18.20;99.90;;;;;;4944472;29;19945;-72
2022/07/05 05:44:09;;;;;;;;;;;18.20;99.90;;;;;;4924783;29;19930;-72
2022/07/05 05:46:41;;;;;;;;;;;18.10;99.90;;;;;;4937663;28;19933;-72
2022/07/05 05:49:12;;;;;;;;;;;18.20;99.90;;;;;;4951017;28;19933;-72
2022/07/05 05:51:44;;;;;;;;;;;18.10;99.90;;;;;;4929347;29;19923;-72
2022/07/05 05:54:11;;;;;;;;;;;18.10;99.90;;;;;;4944202;29;20703;-72
2022/07/05 05:56:42;;;;;;;;;;;18.10;99.90;;;;;;4935289;28;19922;-72
2022/07/05 05:59:09;;;;;;;;;;;18.10;99.90;;;;;;4939805;29;19933;-72
2022/07/05 06:01:40;;;;;;;;;;;18.10;99.90;;;;;;4951166;28;20026;-72
2022/07/05 06:04:07;;;;;;;;;;;18.20;99.90;;;;;;4951988;28;20413;-72
2022/07/05 06:06:34;;;;;;;;;;;18.20;99.90;;;;;;4935798;28;19931;-72
2022/07/05 06:09:05;;;;;;;;;;;18.40;99.90;;;;;;4947921;28;19923;-72
2022/07/05 06:11:37;;;;;;;;;;;18.50;99.90;;;;;;4938863;29;19930;-72
2022/07/05 06:14:09;;;;;;;;;;;18.60;99.90;;;;;;4943189;28;19923;-72
2022/07/05 06:16:35;;;;;;;;;;;18.70;99.90;;;;;;4938790;29;19949;-72
2022/07/05 06:19:07;;;;;;;;;;;18.70;99.90;;;;;;4938246;29;19954;-72
2022/07/05 06:21:39;;;;;;;;;;;18.80;99.90;;;;;;4932610;29;19965;-72
2022/07/05 06:24:05;;;;;;;;;;;18.80;99.90;;;;;;4933338;29;20404;-72
2022/07/05 06:26:37;;;;;;;;;;;18.80;99.90;;;;;;4939791;28;19927;-72
2022/07/05 06:29:08;;;;;;;;;;;18.90;99.90;;;;;;4944852;28;19922;-72
2022/07/05 06:31:40;;;;;;;;;;;18.80;99.90;;;;;;4944619;28;19933;-72
2022/07/05 06:34:12;;;;;;;;;;;18.90;99.90;;;;;;4952252;28;19930;-72
2022/07/05 06:36:45;;;;;;;;;;;18.90;99.90;;;;;;4954771;28;20414;-72
2022/07/05 06:39:17;;;;;;;;;;;18.90;99.90;;;;;;4954866;28;19929;-72
2022/07/05 06:41:48;;;;;;;;;;;18.90;99.90;;;;;;4928861;29;19927;-72
2022/07/05 06:44:20;;;;;;;;;;;19.00;99.90;;;;;;4943950;29;19933;-72
2022/07/05 06:46:52;;;;;;;;;;;19.00;99.90;;;;;;4940148;28;19923;-72
2022/07/05 06:49:23;;;;;;;;;;;19.00;99.90;;;;;;4945423;29;19923;-72
2022/07/05 06:51:55;;;;;;;;;;;19.00;99.90;;;;;;4949074;28;19922;-72
2022/07/05 06:54:21;;;;;;;;;;;19.10;99.90;;;;;;4944397;28;19934;-71
2022/07/05 06:56:55;;;;;;;;;;;19.10;99.90;;;;;;4950701;28;20504;-72
2022/07/05 06:59:22;;;;;;;;;;;19.10;99.90;;;;;;4943319;29;19926;-72
2022/07/05 07:01:53;;;;;;;;;;;19.10;99.90;;;;;;4949363;29;19930;-72
2022/07/05 07:04:25;;;;;;;;;;;19.30;99.90;;;;;;4943027;28;19926;-72
2022/07/05 07:06:57;;;;;;;;;;;19.40;99.90;;;;;;4934647;28;19934;-72
2022/07/05 07:09:28;;;;;;;;;;;19.50;99.90;;;;;;4943145;29;19923;-72
2022/07/05 07:12:00;;;;;;;;;;;19.60;99.90;;;;;;4949043;28;19930;-72
2022/07/05 07:14:31;;;;;;;;;;;19.80;99.90;;;;;;4945516;28;19933;-72
2022/07/05 07:17:03;;;;;;;;;;;19.90;99.90;;;;;;4934453;29;19923;-72
2022/07/05 07:19:35;;;;;;;;;;;20.00;99.90;;;;;;4951550;28;19930;-72
2022/07/05 07:22:02;;;;;;;;;;;20.10;99.90;;;;;;4936232;29;19923;-72
2022/07/05 07:24:33;;;;;;;;;;;20.30;99.90;;;;;;4937893;29;19965;-72
2022/07/05 07:27:06;;;;;;;;;;;20.40;99.90;;;;;;4940643;29;19933;-72
2022/07/05 07:29:39;;;;;;;;;;;20.40;99.90;;;;;;4920039;29;19934;-72
2022/07/05 07:32:11;;;;;;;;;;;20.40;99.90;;;;;;4954162;28;19923;-72
2022/07/05 07:34:42;;;;;;;;;;;20.40;99.90;;;;;;4930962;29;20009;-72
2022/07/05 07:37:14;;;;;;;;;;;20.40;99.90;;;;;;4935011;29;19933;-72
2022/07/05 07:39:41;;;;;;;;;;;20.50;99.90;;;;;;4940790;29;19929;-72
2022/07/05 07:42:12;;;;;;;;;;;20.50;99.90;;;;;;4942542;29;19927;-72
2022/07/05 07:44:44;;;;;;;;;;;20.70;99.90;;;;;;4936220;28;20414;-72
2022/07/05 07:47:16;;;;;;;;;;;20.80;99.90;;;;;;4952193;28;20022;-72
2022/07/05 07:49:47;;;;;;;;;;;20.90;99.90;;;;;;4943194;29;19922;-72
2022/07/05 07:52:19;;;;;;;;;;;20.90;99.90;;;;;;4952827;28;20544;-72
2022/07/05 07:54:50;;;;;;;;;;;21.00;99.90;;;;;;4920996;29;20424;-72
2022/07/05 07:57:22;;;;;;;;;;;21.10;99.90;;;;;;4932270;29;19922;-72
2022/07/05 07:59:54;;;;;;;;;;;21.20;99.90;;;;;;4938997;29;20046;-72
2022/07/05 08:02:26;;;;;;;;;;;21.30;99.90;;;;;;4939462;29;20031;-72
2022/07/05 08:04:58;;;;;;;;;;;21.40;99.90;;;;;;4921456;29;19974;-73
2022/07/05 08:07:29;;;;;;;;;;;21.50;99.90;;;;;;4953156;28;19926;-72
2022/07/05 08:10:01;;;;;;;;;;;21.50;99.90;;;;;;4940927;29;19930;-72
2022/07/05 08:12:33;;;;;;;;;;;21.50;99.90;;;;;;4954016;28;19934;-72
2022/07/05 08:15:07;;;;;;;;;;;21.60;99.90;;;;;;4941032;28;19927;-72
2022/07/05 08:21:30;;;;;;;;;;;21.60;99.90;;;;;;4938603;29;20300;-72
2022/07/05 08:23:16;;;;;;;;;;;21.80;99.90;;;;;;4939596;29;20383;-72
2022/07/05 08:25:42;;;;;;;;;;;21.90;99.90;;;;;;4936216;29;19923;-72
2022/07/05 08:28:14;;;;;;;;;;;22.10;99.90;;;;;;4937447;29;20021;-72
2022/07/05 08:30:40;;;;;;;;;;;22.30;99.90;;;;;;4943835;28;19931;-72
2022/07/05 08:33:07;;;;;;;;;;;22.50;99.90;;;;;;4938246;29;20268;-72
2022/07/05 08:35:39;;;;;;;;;;;22.60;99.90;;;;;;4943593;28;19923;-72
2022/07/05 08:38:12;;;;;;;;;;;22.60;99.90;;;;;;4935902;29;19933;-72
2022/07/05 08:40:46;;;;;;;;;;;22.70;99.90;;;;;;4937531;28;19922;-72
2022/07/05 08:43:14;;;;;;;;;;;22.60;99.90;;;;;;4953460;28;19938;-72
2022/07/05 08:45:47;;;;;;;;;;;22.70;99.90;;;;;;4940749;28;19922;-72
2022/07/05 08:48:19;;;;;;;;;;;22.90;99.90;;;;;;4936132;29;19923;-72
2022/07/05 08:50:51;;;;;;;;;;;23.10;99.90;;;;;;4936735;28;19933;-72
2022/07/05 08:53:18;;;;;;;;;;;23.30;99.90;;;;;;4938692;29;19923;-72
2022/07/05 08:55:45;;;;;;;;;;;23.50;99.20;;;;;;4950665;28;19926;-72
2022/07/05 08:58:17;;;;;;;;;;;23.60;98.60;;;;;;4933944;29;19927;-72
2022/07/05 09:00:49;;;;;;;;;;;23.60;98.30;;;;;;4945423;29;20429;-72
2022/07/05 09:03:25;;;;;;;;;;;23.60;99.30;;;;;;4943730;29;19928;-72
2022/07/05 09:05:58;;;;;;;;;;;23.70;97.90;;;;;;4943294;28;19930;-72
2022/07/05 09:08:33;;;;;;;;;;;23.70;97.50;;;;;;4956476;28;19926;-72
2022/07/05 09:11:02;;;;;;;;;;;23.60;97.80;;;;;;4950251;29;19929;-72
2022/07/05 09:13:35;;;;;;;;;;;23.60;97.30;;;;;;4941000;29;19923;-72
2022/07/05 09:16:06;;;;;;;;;;;23.60;95.60;;;;;;4940607;28;19923;-72
2022/07/05 09:18:38;;;;;;;;;;;23.60;95.80;;;;;;4943301;29;20387;-72
2022/07/05 09:21:14;;;;;;;;;;;23.90;95.40;;;;;;4964938;28;19929;-72
2022/07/05 09:23:42;;;;;;;;;;;24.00;94.80;;;;;;4941849;28;19931;-72
2022/07/05 09:26:13;;;;;;;;;;;24.20;94.80;;;;;;4937973;28;20311;-72
2022/07/05 09:28:53;;;;;;;;;;;24.10;92.50;;;;;;4958454;28;19923;-72
2022/07/05 09:31:25;;;;;;;;;;;24.10;92.50;;;;;;4956181;28;20552;-72
2022/07/05 09:33:52;;;;;;;;;;;24.20;93.10;;;;;;4941587;29;19934;-72
2022/07/05 09:36:25;;;;;;;;;;;24.30;94.20;;;;;;4928384;29;19932;-72
2022/07/05 09:38:56;;;;;;;;;;;24.40;92.60;;;;;;4944764;29;20022;-72
2022/07/05 09:41:28;;;;;;;;;;;24.60;93.50;;;;;;4951059;29;19926;-72
2022/07/05 09:43:59;;;;;;;;;;;24.60;92.10;;;;;;4968356;28;20315;-72
2022/07/05 09:46:32;;;;;;;;;;;24.60;91.50;;;;;;4933217;29;20028;-72
2022/07/05 09:48:59;;;;;;;;;;;24.50;91.40;;;;;;4939622;29;19933;-72
2022/07/05 09:51:46;;;;;;;;;;;24.50;90.10;;;;;;4949631;29;19949;-72
2022/07/05 09:54:17;;;;;;;;;;;24.50;90.60;;;;;;4931506;28;20005;-72
2022/07/05 09:56:47;;;;;;;;;;;24.50;89.70;;;;;;4928871;29;19926;-72
2022/07/05 09:59:20;;;;;;;;;;;24.70;89.80;;;;;;4937863;29;19923;-72
2022/07/05 10:01:47;;;;;;;;;;;24.80;87.60;;;;;;4938939;29;19923;-72
2022/07/05 10:04:18;;;;;;;;;;;25.00;88.90;;;;;;4938251;28;20311;-72
2022/07/05 10:06:50;;;;;;;;;;;24.90;88.50;;;;;;4933828;29;19927;-72
2022/07/05 10:09:21;;;;;;;;;;;24.70;85.60;;;;;;4941247;29;19927;-72
2022/07/05 10:11:53;;;;;;;;;;;24.80;85.70;;;;;;4944678;28;19934;-72
2022/07/05 10:14:25;;;;;;;;;;;24.90;85.80;;;;;;4935492;29;19923;-72
2022/07/05 10:17:01;;;;;;;;;;;25.10;86.80;;;;;;4937785;29;20396;-72
2022/07/05 10:19:34;;;;;;;;;;;25.40;85.90;;;;;;4943653;28;20295;-72
2022/07/05 10:22:06;;;;;;;;;;;25.20;79.90;;;;;;4957765;28;19966;-72
2022/07/05 10:24:37;;;;;;;;;;;24.90;84.10;;;;;;4945342;28;19926;-72
2022/07/05 10:27:09;;;;;;;;;;;24.80;85.40;;;;;;4935451;29;19962;-72
2022/07/05 10:29:42;;;;;;;;;;;24.50;84.90;;;;;;4951377;28;20014;-72
2022/07/05 10:32:15;;;;;;;;;;;24.40;83.50;;;;;;4935889;29;20404;-72
2022/07/05 10:34:47;;;;;;;;;;;24.50;83.60;;;;;;4940955;28;20353;-72
2022/07/05 10:37:18;;;;;;;;;;;24.50;82.70;;;;;;4926114;29;19962;-72
2022/07/05 10:39:50;;;;;;;;;;;24.50;83.60;;;;;;4941903;29;19927;-72
2022/07/05 10:42:23;;;;;;;;;;;24.50;82.40;;;;;;4953966;29;19997;-72
2022/07/05 10:44:54;;;;;;;;;;;24.40;82.40;;;;;;4926929;29;20583;-73
2022/07/05 10:47:27;;;;;;;;;;;24.30;84.00;;;;;;4929929;29;19922;-72
2022/07/05 10:50:00;;;;;;;;;;;24.40;85.30;;;;;;4945953;29;19923;-72
2022/07/05 10:52:31;;;;;;;;;;;24.80;83.80;;;;;;4943290;29;19934;-72
2022/07/05 10:55:18;;;;;;;;;;;25.10;84.50;;;;;;4934040;28;19927;-72
2022/07/05 10:58:18;;;;;;;;;;;25.30;82.60;;;;;;4945339;28;19930;-72
2022/07/05 11:00:46;;;;;;;;;;;25.60;81.60;;;;;;4959021;28;20302;-73
2022/07/05 11:03:35;;;;;;;;;;;25.90;80.80;;;;;;4945134;28;19933;-72
2022/07/05 11:06:07;;;;;;;;;;;26.00;80.20;;;;;;4931108;29;19923;-72
2022/07/05 11:08:53;;;;;;;;;;;26.00;82.00;;;;;;4946788;29;20411;-75
2022/07/05 11:11:25;;;;;;;;;;;26.10;77.10;;;;;;4941378;29;19930;-72
2022/07/05 11:14:01;;;;;;;;;;;26.20;78.30;;;;;;4946619;29;19948;-73
2022/07/05 11:16:34;;;;;;;;;;;26.30;75.90;;;;;;4938551;29;19929;-72
2022/07/05 11:19:06;;;;;;;;;;;26.40;73.60;;;;;;4924348;29;19927;-72
2022/07/05 11:21:40;;;;;;;;;;;26.40;72.50;;;;;;4936702;29;19926;-73
2022/07/05 11:24:19;;;;;;;;;;;26.40;73.10;;;;;;4948238;29;20426;-72
2022/07/05 11:26:54;;;;;;;;;;;26.50;69.90;;;;;;4932889;29;19943;-72
2022/07/05 11:29:45;;;;;;;;;;;26.40;69.70;;;;;;4956922;28;19932;-72
2022/07/05 11:32:13;;;;;;;;;;;26.30;71.80;;;;;;4945801;29;19930;-72
2022/07/05 11:34:45;;;;;;;;;;;26.20;72.50;;;;;;4947738;28;19937;-72
2022/07/05 11:37:24;;;;;;;;;;;26.20;72.40;;;;;;4943094;28;20408;-72
2022/07/05 11:40:10;;;;;;;;;;;26.50;75.10;;;;;;4939754;29;20383;-72
2022/07/05 11:42:45;;;;;;;;;;;26.70;72.20;;;;;;4945377;28;19931;-72
2022/07/05 11:45:17;;;;;;;;;;;26.90;69.90;;;;;;4941997;28;19927;-72
2022/07/05 11:47:50;;;;;;;;;;;26.90;71.40;;;;;;4937807;29;19930;-72
2022/07/05 11:50:17;;;;;;;;;;;27.00;71.90;;;;;;4942968;28;20269;-72
2022/07/05 11:52:51;;;;;;;;;;;26.90;69.70;;;;;;4944949;28;19981;-72
2022/07/05 11:55:24;;;;;;;;;;;26.80;70.00;;;;;;4939317;28;19929;-72
2022/07/05 11:57:57;;;;;;;;;;;26.60;69.90;;;;;;4942138;29;20318;-73
2022/07/05 12:00:35;;;;;;;;;;;26.30;70.70;;;;;;4937538;28;19941;-72
2022/07/05 12:03:13;;;;;;;;;;;26.20;73.90;;;;;;4960744;28;20350;-72
2022/07/05 12:05:40;;;;;;;;;;;26.10;75.00;;;;;;4939717;28;19926;-73
2022/07/05 12:08:18;;;;;;;;;;;25.90;73.80;;;;;;4936711;28;19927;-72
2022/07/05 12:13:46;;;;;;;;;;;25.60;77.10;;;;;;4954367;28;19929;-72
2022/07/05 12:16:19;;;;;;;;;;;25.60;76.30;;;;;;4939881;28;19927;-72
2022/07/05 12:18:47;;;;;;;;;;;25.50;78.70;;;;;;4931745;29;19926;-72
2022/07/05 12:21:20;;;;;;;;;;;25.50;78.50;;;;;;4948842;28;20323;-72
2022/07/05 12:23:48;;;;;;;;;;;25.40;77.30;;;;;;4933268;28;20009;-72
2022/07/05 12:26:21;;;;;;;;;;;25.50;75.80;;;;;;4940314;28;19929;-72
2022/07/05 12:28:53;;;;;;;;;;;25.80;77.10;;;;;;4932778;28;19933;-72
2022/07/05 12:31:24;;;;;;;;;;;26.30;74.60;;;;;;4930555;28;20643;-72
2022/07/05 12:34:15;;;;;;;;;;;26.60;72.50;;;;;;4944136;29;19922;-72
2022/07/05 12:36:47;;;;;;;;;;;26.40;71.60;;;;;;4941952;29;19926;-72
2022/07/05 12:39:18;;;;;;;;;;;26.30;73.30;;;;;;4940630;29;19923;-72
2022/07/05 12:41:45;;;;;;;;;;;26.20;72.20;;;;;;4947461;29;20390;-73
2022/07/05 12:44:20;;;;;;;;;;;26.20;74.50;;;;;;4948549;28;19930;-72
2022/07/05 12:46:49;;;;;;;;;;;26.30;73.90;;;;;;4948417;28;19930;-72
2022/07/05 12:49:21;;;;;;;;;;;26.60;74.20;;;;;;4937313;29;19922;-73
2022/07/05 12:51:52;;;;;;;;;;;26.90;74.50;;;;;;4946935;28;19931;-73
2022/07/05 13:00:06;;;;;;;;;;;27.60;69.40;;;;;;4929929;29;19930;-73
2022/07/05 13:02:39;;;;;;;;;;;27.70;68.90;;;;;;4949395;28;19927;-72
2022/07/05 13:05:09;;;;;;;;;;;28.00;70.70;;;;;;4928501;29;19934;-73
2022/07/05 13:07:42;;;;;;;;;;;28.00;70.70;;;;;;4942151;28;19981;-73
2022/07/05 13:10:15;;;;;;;;;;;28.10;70.40;;;;;;4945156;28;19946;-72
2022/07/05 13:12:47;;;;;;;;;;;28.30;71.30;;;;;;4931483;29;19926;-73
2022/07/05 13:15:19;;;;;;;;;;;28.40;69.50;;;;;;4938379;28;19930;-73
2022/07/05 13:17:50;;;;;;;;;;;28.40;69.20;;;;;;4929206;29;19927;-73
2022/07/05 13:20:22;;;;;;;;;;;28.30;67.70;;;;;;4928768;29;21654;-72
2022/07/05 13:22:54;;;;;;;;;;;28.20;69.50;;;;;;4928886;29;19949;-72
2022/07/05 13:25:26;;;;;;;;;;;27.90;69.60;;;;;;4927114;29;19968;-72
2022/07/05 13:27:57;;;;;;;;;;;27.50;70.50;;;;;;4940775;28;19922;-73
2022/07/05 13:30:29;;;;;;;;;;;27.40;71.90;;;;;;4926075;29;20387;-73
2022/07/05 13:33:01;;;;;;;;;;;27.50;67.00;;;;;;4927235;29;19946;-72
2022/07/05 13:35:33;;;;;;;;;;;27.70;66.60;;;;;;4929444;29;19930;-72
2022/07/05 13:38:05;;;;;;;;;;;27.70;64.60;;;;;;4927741;29;20531;-72
2022/07/05 13:40:36;;;;;;;;;;;27.70;64.30;;;;;;4944727;28;19933;-73
2022/07/05 13:43:08;;;;;;;;;;;27.80;62.50;;;;;;4937324;29;20300;-72
2022/07/05 13:45:40;;;;;;;;;;;28.00;62.80;;;;;;4945401;28;19926;-72
2022/07/05 13:48:12;;;;;;;;;;;28.20;62.30;;;;;;4947700;28;19929;-73
2022/07/05 13:50:43;;;;;;;;;;;28.20;61.40;;;;;;4935480;29;19938;-73
2022/07/05 13:53:10;;;;;;;;;;;28.10;63.00;;;;;;4947340;28;19961;-73
2022/07/05 13:55:37;;;;;;;;;;;28.10;63.70;;;;;;4929745;29;20403;-72
2022/07/05 13:58:08;;;;;;;;;;;28.00;63.90;;;;;;4945768;28;19923;-73
2022/07/05 14:00:40;;;;;;;;;;;28.00;64.10;;;;;;4929006;29;20304;-72
2022/07/05 14:03:11;;;;;;;;;;;28.00;63.10;;;;;;4943835;28;20009;-72
2022/07/05 14:05:46;;;;;;;;;;;27.80;63.30;;;;;;4928001;28;19926;-73
2022/07/05 14:08:21;;;;;;;;;;;28.00;64.40;;;;;;4946413;28;19997;-73
2022/07/05 14:10:54;;;;;;;;;;;27.70;65.30;;;;;;4928396;29;19931;-73
2022/07/05 14:13:26;;;;;;;;;;;27.60;65.50;;;;;;4943671;28;20470;-73
2022/07/05 14:15:57;;;;;;;;;;;27.60;64.60;;;;;;4929757;29;19923;-72
2022/07/05 14:18:29;;;;;;;;;;;27.80;64.30;;;;;;4944064;28;20352;-73
2022/07/05 14:21:01;;;;;;;;;;;28.10;65.00;;;;;;4928854;29;19923;-73
2022/07/05 14:23:32;;;;;;;;;;;28.30;63.90;;;;;;4930643;29;19927;-73
2022/07/05 14:26:04;;;;;;;;;;;28.50;64.40;;;;;;4928965;29;20301;-72
2022/07/05 14:28:35;;;;;;;;;;;28.70;63.10;;;;;;4946448;28;19941;-73
2022/07/05 14:31:07;;;;;;;;;;;28.70;64.20;;;;;;4929959;29;19922;-73
2022/07/05 14:33:39;;;;;;;;;;;28.70;63.10;;;;;;4930194;29;19922;-72
2022/07/05 14:36:06;;;;;;;;;;;28.40;63.00;;;;;;4943590;28;19954;-72
2022/07/05 14:38:38;;;;;;;;;;;28.40;61.30;;;;;;4934236;29;19923;-73
2022/07/05 14:41:05;;;;;;;;;;;28.70;60.60;;;;;;4946659;28;19946;-73
2022/07/05 14:43:32;;;;;;;;;;;29.10;61.40;;;;;;4931353;29;19922;-72
2022/07/05 14:45:58;;;;;;;;;;;29.40;61.30;;;;;;4929599;28;19942;-72
2022/07/05 14:48:30;;;;;;;;;;;29.20;59.30;;;;;;4943876;28;19927;-72
2022/07/05 14:51:02;;;;;;;;;;;28.70;60.80;;;;;;4932958;29;19922;-73
2022/07/05 14:53:33;;;;;;;;;;;28.80;60.90;;;;;;4933143;29;20292;-73